Carnival Miracle — H3VS — position and weather

sailwx.info

Track history (hours):
 
Tides and Currents Weather Stations Pressure Air Temp Water Temp Dewpoint Dewpoint Depression Visibility Wind Speed Wind Dir Waves Ship Positions

Carnival Miracle

Operator: Carnival Cruise Lines

Last reported at 2017-Jun-26 06:00 UTC. Time now 2017-Jun-29 01:57 UTC.
Position N 25°00' W 112°54'.

Type: Ship. MMSI: 35437000.

Wind from 310 at 7 knots

Barometer 1015.0 mb
Air temperature 21.0 ° C
Visibility: greater than 5.4 NM
Dewpoint 19.5 ° C
Water temperature 21.0 ° C

Date/timePositionNaut miles runAvg speedWind from/ knotsBaromVisibWave heightAir tempDewpointWater temp
2017-Jun-26 06:00N 25°00' W 112°54'37320.3 310 / 71015.0 5.4 21.019.521.0
2017-Jun-25 11:38N 30°13' W 116°44'321.2
2017-Jun-25 11:30N 30°16' W 116°45'1121.1
2017-Jun-25 11:00N 30°26' W 116°49'1120.8
2017-Jun-25 10:27N 30°36' W 116°54'1020.6
2017-Jun-25 09:58N 30°46' W 116°58'1120.3
2017-Jun-25 09:25N 30°56' W 117°03'920.4
2017-Jun-25 09:00N 31°04' W 117°06'1020.5
2017-Jun-25 08:31N 31°14' W 117°10'1120.6
2017-Jun-25 07:59N 31°24' W 117°15'1220.8
2017-Jun-25 07:24N 31°35' W 117°20'820.6
2017-Jun-25 07:00N 31°43' W 117°23'1020.7
2017-Jun-25 06:30N 31°52' W 117°27'1020.8
2017-Jun-25 06:00N 32°02' W 117°31'1121.1
2017-Jun-25 05:30N 32°12' W 117°36'1021.0
2017-Jun-25 05:01N 32°22' W 117°40'1020.8
2017-Jun-25 04:31N 32°32' W 117°44'1020.7
2017-Jun-25 04:00N 32°41' W 117°48'1020.4
2017-Jun-25 03:31N 32°51' W 117°51'1020.1
2017-Jun-25 03:01N 33°01' W 117°55'1020.5
2017-Jun-25 02:31N 33°10' W 118°00'1020.1
2017-Jun-25 02:01N 33°19' W 118°06'1019.8
2017-Jun-25 01:31N 33°28' W 118°10'816.0
2017-Jun-25 01:00N 33°36' W 118°13'612.0
2017-Jun-25 00:30N 33°42' W 118°11'3 6.2
2017-Jun-24 23:58N 33°45' W 118°11'0 0.0
2017-Jun-24 23:28N 33°45' W 118°11'0 0.0
2017-Jun-24 22:58N 33°45' W 118°11'0 0.0
2017-Jun-24 22:31N 33°45' W 118°11'0 0.0
2017-Jun-24 22:00N 33°45' W 118°11'0 0.0
2017-Jun-24 21:30N 33°45' W 118°11'0 0.0
2017-Jun-24 21:00N 33°45' W 118°11'0 0.0
2017-Jun-24 20:30N 33°45' W 118°11'0 0.0
2017-Jun-24 19:59N 33°45' W 118°11'0 0.0
2017-Jun-24 19:29N 33°45' W 118°11'0 0.0
2017-Jun-24 18:56N 33°45' W 118°11'0 0.0
2017-Jun-24 18:29N 33°45' W 118°11'0 0.0
2017-Jun-24 17:58N 33°45' W 118°11'0 0.0
2017-Jun-24 17:28N 33°45' W 118°11'0 0.0
2017-Jun-24 16:58N 33°45' W 118°11'0 0.0
2017-Jun-24 16:28N 33°45' W 118°11'0 0.0
2017-Jun-24 15:58N 33°45' W 118°11'0 0.0
2017-Jun-24 15:31N 33°45' W 118°11'0 0.0
2017-Jun-24 14:57N 33°45' W 118°11'0 0.1
2017-Jun-24 14:00N 33°45' W 118°11'1 2.0
2017-Jun-24 13:30N 33°44' W 118°11'510.2
2017-Jun-24 13:00N 33°39' W 118°10'611.9
2017-Jun-24 12:30N 33°33' W 118°08'713.1
2017-Jun-24 12:00N 33°27' W 118°06'815.9
2017-Jun-24 11:30N 33°20' W 118°02'816.2
2017-Jun-24 11:00N 33°12' W 117°58'816.6
2017-Jun-24 10:30N 33°04' W 117°55'917.8
2017-Jun-24 10:01N 32°56' W 117°51'917.6
2017-Jun-24 09:30N 32°48' W 117°47'917.5
2017-Jun-24 09:01N 32°40' W 117°43'917.5
2017-Jun-24 08:30N 32°32' W 117°39'917.3
2017-Jun-24 08:00N 32°24' W 117°36'817.0
2017-Jun-24 07:30N 32°16' W 117°33'816.7
2017-Jun-24 07:00N 32°08' W 117°29'9681.3
2017-Jun-24 07:00N 32°00' W 117°24'1 2.2 350 / 191014.0 5.4 19.017.520.0
2017-Jun-24 06:30N 31°60' W 117°25'817.2
2017-Jun-24 06:00N 31°52' W 117°22'917.1
2017-Jun-24 05:30N 31°44' W 117°18'816.9
2017-Jun-24 05:00N 31°36' W 117°14'1217.0
2017-Jun-24 04:19N 31°25' W 117°09'1816.8
2017-Jun-24 03:14N 31°08' W 117°02'516.8
2017-Jun-24 02:57N 31°04' W 116°60'919.7
2017-Jun-24 02:30N 30°56' W 116°56'1220.2
2017-Jun-24 01:56N 30°45' W 116°51'819.6
2017-Jun-24 01:30N 30°37' W 116°47'1219.7
2017-Jun-24 00:53N 30°26' W 116°42'  
2017-Jun-19 06:00N 24°42' W 112°36'11221.3 340 / 151011.010.8 19.017.521.0
2017-Jun-19 00:44N 26°06' W 113°57'520.9
2017-Jun-19 00:30N 26°10' W 114°01'1020.6
2017-Jun-19 00:00N 26°18' W 114°08'1120.7
2017-Jun-18 23:29N 26°26' W 114°16'1121.7
2017-Jun-18 23:00N 26°34' W 114°23'1121.2
2017-Jun-18 22:29N 26°43' W 114°31'1321.3
2017-Jun-18 21:52N 26°53' W 114°41'821.2
2017-Jun-18 21:30N 26°59' W 114°46'1121.6
2017-Jun-18 21:00N 27°07' W 114°54'1122.6
2017-Jun-18 20:30N 27°16' W 115°02'1222.3
2017-Jun-18 19:57N 27°25' W 115°11'1022.2
2017-Jun-18 19:31N 27°33' W 115°18'2422.2
2017-Jun-18 18:24N 27°51' W 115°36'1022.2
2017-Jun-18 17:58N 27°59' W 115°43'8521.5
2017-Jun-18 14:00N 29°18' W 116°20'1121.8
2017-Jun-18 13:31N 29°28' W 116°24'2122.1
2017-Jun-18 12:32N 29°48' W 116°33'121.5
2017-Jun-18 12:30N 29°49' W 116°33'1121.8
2017-Jun-18 12:00N 29°59' W 116°38'1121.6
2017-Jun-18 11:30N 30°09' W 116°42'1221.5
2017-Jun-18 10:55N 30°21' W 116°47'921.7
2017-Jun-18 10:30N 30°29' W 116°51'1121.8
2017-Jun-18 10:00N 30°39' W 116°55'1121.7
2017-Jun-18 09:30N 30°50' W 116°60'1121.7
2017-Jun-18 09:01N 30°60' W 117°04'1121.7
2017-Jun-18 08:31N 31°10' W 117°09'1121.7
2017-Jun-18 08:01N 31°20' W 117°13'1121.8
2017-Jun-18 07:30N 31°30' W 117°17'1122.0
2017-Jun-18 07:00N 31°41' W 117°22'1121.9
2017-Jun-18 06:31N 31°51' W 117°26'1121.6
2017-Jun-18 06:00N 32°01' W 117°31'1121.6
2017-Jun-18 05:31N 32°11' W 117°35'1121.8
2017-Jun-18 05:01N 32°21' W 117°40'1121.7
2017-Jun-18 04:31N 32°31' W 117°45'1020.4
2017-Jun-18 04:01N 32°41' W 117°49'1020.5
2017-Jun-18 03:31N 32°51' W 117°51'1020.4
2017-Jun-18 03:01N 33°01' W 117°55'1020.5
2017-Jun-18 02:30N 33°10' W 118°00'1020.3
2017-Jun-18 02:01N 33°19' W 118°06'1020.4
2017-Jun-18 01:31N 33°28' W 118°10'816.2
2017-Jun-18 01:00N 33°36' W 118°13'612.2
2017-Jun-18 00:30N 33°42' W 118°11'3 6.1
2017-Jun-18 00:00N 33°45' W 118°11'0 0.0
2017-Jun-17 23:30N 33°45' W 118°11'0 0.0
2017-Jun-17 23:00N 33°45' W 118°11'0 0.0
2017-Jun-17 22:29N 33°45' W 118°11'0 0.0
2017-Jun-17 21:59N 33°45' W 118°11'0 0.0
2017-Jun-17 21:29N 33°45' W 118°11'0 0.0
2017-Jun-17 20:59N 33°45' W 118°11'0 0.0
2017-Jun-17 20:28N 33°45' W 118°11'0 0.0
2017-Jun-17 19:58N 33°45' W 118°11'0 0.0
2017-Jun-17 19:28N 33°45' W 118°11'0 0.0
2017-Jun-17 18:58N 33°45' W 118°11'0 0.0
2017-Jun-17 18:28N 33°45' W 118°11'0 0.0
2017-Jun-17 18:00N 33°45' W 118°11'0 0.0
2017-Jun-17 17:30N 33°45' W 118°11'0 0.0
2017-Jun-17 17:00N 33°45' W 118°11'0 0.0
2017-Jun-17 16:30N 33°45' W 118°11'0 0.0
2017-Jun-17 16:00N 33°45' W 118°11'0 0.0
2017-Jun-17 15:29N 33°45' W 118°11'0 0.0
2017-Jun-17 14:59N 33°45' W 118°11'0 0.0
2017-Jun-17 14:30N 33°45' W 118°11'1 1.0
2017-Jun-17 13:31N 33°44' W 118°11'510.0
2017-Jun-17 13:00N 33°39' W 118°10'611.3
2017-Jun-17 12:30N 33°34' W 118°09'612.0
2017-Jun-17 12:00N 33°28' W 118°06'713.9
2017-Jun-17 11:31N 33°22' W 118°03'713.7
2017-Jun-17 11:00N 33°15' W 118°00'714.0
2017-Jun-17 10:30N 33°09' W 117°56'816.5
2017-Jun-17 10:00N 33°01' W 117°53'816.9
2017-Jun-17 09:30N 32°53' W 117°50'816.8
2017-Jun-17 09:00N 32°45' W 117°47'917.3
2017-Jun-17 08:30N 32°37' W 117°43'917.1
2017-Jun-17 08:00N 32°29' W 117°39'917.1
2017-Jun-17 07:31N 32°21' W 117°35'917.1
2017-Jun-17 07:00N 32°13' W 117°32'917.1
2017-Jun-17 06:30N 32°05' W 117°28'817.0
2017-Jun-17 06:00N 31°57' W 117°24'816.6
2017-Jun-17 05:30N 31°50' W 117°21'816.7
2017-Jun-17 05:00N 31°42' W 117°17'816.7
2017-Jun-17 04:30N 31°34' W 117°13'816.9
2017-Jun-17 04:00N 31°26' W 117°10'1216.8
2017-Jun-17 03:18N 31°15' W 117°05'517.1
2017-Jun-17 03:00N 31°10' W 117°03'817.0
2017-Jun-17 02:30N 31°03' W 116°59'917.1
2017-Jun-17 02:00N 30°55' W 116°55'1217.2
2017-Jun-17 01:17N 30°43' W 116°50'517.5
2017-Jun-17 01:00N 30°39' W 116°48'1717.3
2017-Jun-17 00:01N 30°23' W 116°41'017.5
2017-Jun-17 00:00N 30°22' W 116°41'917.6
2017-Jun-16 23:30N 30°14' W 116°37'1120.1
2017-Jun-16 22:57N 30°04' W 116°32'2120.0
2017-Jun-16 21:53N 29°44' W 116°23'819.7
2017-Jun-16 21:30N 29°37' W 116°20'1019.8
2017-Jun-16 21:00N 29°28' W 116°16'1019.6
2017-Jun-16 20:30N 29°19' W 116°12'1119.8
2017-Jun-16 19:57N 29°08' W 116°07'1019.9
2017-Jun-16 19:27N 28°59' W 116°03'920.0
2017-Jun-16 19:00N 28°51' W 115°60'1020.1
2017-Jun-16 18:30N 28°42' W 115°55'1020.0
2017-Jun-16 18:00N 28°32' W 115°51'1020.0
2017-Jun-16 17:29N 28°23' W 115°47'1019.6
2017-Jun-16 17:00N 28°14' W 115°43'3219.4
2017-Jun-16 15:20N 27°48' W 115°20'719.8
2017-Jun-16 15:00N 27°43' W 115°16'2919.5
2017-Jun-16 13:30N 27°20' W 114°56'918.9
2017-Jun-16 13:00N 27°13' W 114°49'918.7
2017-Jun-16 12:30N 27°05' W 114°43'1020.2
2017-Jun-16 12:00N 26°57' W 114°36'1320.5
2017-Jun-16 11:21N 26°47' W 114°27'4519.2
2017-Jun-16 09:00N 26°12' W 113°54'   310 / 181016.010.8 18.016.419.0
Track history (hours):
 
Tides and Currents Weather Stations Pressure Air Temp Water Temp Dewpoint Dewpoint Depression Visibility Wind Speed Wind Dir Waves Ship Positions

Carnival Miracle

Operator: Carnival Cruise Lines

Last reported at 2017-Jun-26 06:00 UTC. Time now 2017-Jun-29 01:57 UTC.
Position N 25°00' W 112°54'.

Type: Ship. MMSI: 35437000.

Wind from 310 at 7 knots

Barometer 1015.0 mb
Air temperature 21.0 ° C
Visibility: greater than 5.4 NM
Dewpoint 19.5 ° C
Water temperature 21.0 ° C

Date/timePositionNaut miles runAvg speedWind from/ knotsBaromVisibWave heightAir tempDewpointWater temp
2017-Jun-26 06:00N 25°00' W 112°54'37320.3 310 / 71015.0 5.4 21.019.521.0
2017-Jun-25 11:38N 30°13' W 116°44'321.2
2017-Jun-25 11:30N 30°16' W 116°45'1121.1
2017-Jun-25 11:00N 30°26' W 116°49'1120.8
2017-Jun-25 10:27N 30°36' W 116°54'1020.6
2017-Jun-25 09:58N 30°46' W 116°58'1120.3
2017-Jun-25 09:25N 30°56' W 117°03'920.4
2017-Jun-25 09:00N 31°04' W 117°06'1020.5
2017-Jun-25 08:31N 31°14' W 117°10'1120.6
2017-Jun-25 07:59N 31°24' W 117°15'1220.8
2017-Jun-25 07:24N 31°35' W 117°20'820.6
2017-Jun-25 07:00N 31°43' W 117°23'1020.7
2017-Jun-25 06:30N 31°52' W 117°27'1020.8
2017-Jun-25 06:00N 32°02' W 117°31'1121.1
2017-Jun-25 05:30N 32°12' W 117°36'1021.0
2017-Jun-25 05:01N 32°22' W 117°40'1020.8
2017-Jun-25 04:31N 32°32' W 117°44'1020.7
2017-Jun-25 04:00N 32°41' W 117°48'1020.4
2017-Jun-25 03:31N 32°51' W 117°51'1020.1
2017-Jun-25 03:01N 33°01' W 117°55'1020.5
2017-Jun-25 02:31N 33°10' W 118°00'1020.1
2017-Jun-25 02:01N 33°19' W 118°06'1019.8
2017-Jun-25 01:31N 33°28' W 118°10'816.0
2017-Jun-25 01:00N 33°36' W 118°13'612.0
2017-Jun-25 00:30N 33°42' W 118°11'3 6.2
2017-Jun-24 23:58N 33°45' W 118°11'0 0.0
2017-Jun-24 23:28N 33°45' W 118°11'0 0.0
2017-Jun-24 22:58N 33°45' W 118°11'0 0.0
2017-Jun-24 22:31N 33°45' W 118°11'0 0.0
2017-Jun-24 22:00N 33°45' W 118°11'0 0.0
2017-Jun-24 21:30N 33°45' W 118°11'0 0.0
2017-Jun-24 21:00N 33°45' W 118°11'0 0.0
2017-Jun-24 20:30N 33°45' W 118°11'0 0.0
2017-Jun-24 19:59N 33°45' W 118°11'0 0.0
2017-Jun-24 19:29N 33°45' W 118°11'0 0.0
2017-Jun-24 18:56N 33°45' W 118°11'0 0.0
2017-Jun-24 18:29N 33°45' W 118°11'0 0.0
2017-Jun-24 17:58N 33°45' W 118°11'0 0.0
2017-Jun-24 17:28N 33°45' W 118°11'0 0.0
2017-Jun-24 16:58N 33°45' W 118°11'0 0.0
2017-Jun-24 16:28N 33°45' W 118°11'0 0.0
2017-Jun-24 15:58N 33°45' W 118°11'0 0.0
2017-Jun-24 15:31N 33°45' W 118°11'0 0.0
2017-Jun-24 14:57N 33°45' W 118°11'0 0.1
2017-Jun-24 14:00N 33°45' W 118°11'1 2.0
2017-Jun-24 13:30N 33°44' W 118°11'510.2
2017-Jun-24 13:00N 33°39' W 118°10'611.9
2017-Jun-24 12:30N 33°33' W 118°08'713.1
2017-Jun-24 12:00N 33°27' W 118°06'815.9
2017-Jun-24 11:30N 33°20' W 118°02'816.2
2017-Jun-24 11:00N 33°12' W 117°58'816.6
2017-Jun-24 10:30N 33°04' W 117°55'917.8
2017-Jun-24 10:01N 32°56' W 117°51'917.6
2017-Jun-24 09:30N 32°48' W 117°47'917.5
2017-Jun-24 09:01N 32°40' W 117°43'917.5
2017-Jun-24 08:30N 32°32' W 117°39'917.3
2017-Jun-24 08:00N 32°24' W 117°36'817.0
2017-Jun-24 07:30N 32°16' W 117°33'816.7
2017-Jun-24 07:00N 32°08' W 117°29'9681.3
2017-Jun-24 07:00N 32°00' W 117°24'1 2.2 350 / 191014.0 5.4 19.017.520.0
2017-Jun-24 06:30N 31°60' W 117°25'817.2
2017-Jun-24 06:00N 31°52' W 117°22'917.1
2017-Jun-24 05:30N 31°44' W 117°18'816.9
2017-Jun-24 05:00N 31°36' W 117°14'1217.0
2017-Jun-24 04:19N 31°25' W 117°09'1816.8
2017-Jun-24 03:14N 31°08' W 117°02'516.8
2017-Jun-24 02:57N 31°04' W 116°60'919.7
2017-Jun-24 02:30N 30°56' W 116°56'1220.2
2017-Jun-24 01:56N 30°45' W 116°51'819.6
2017-Jun-24 01:30N 30°37' W 116°47'1219.7
2017-Jun-24 00:53N 30°26' W 116°42'  
2017-Jun-19 06:00N 24°42' W 112°36'11221.3 340 / 151011.010.8 19.017.521.0
2017-Jun-19 00:44N 26°06' W 113°57'520.9
2017-Jun-19 00:30N 26°10' W 114°01'1020.6
2017-Jun-19 00:00N 26°18' W 114°08'1120.7
2017-Jun-18 23:29N 26°26' W 114°16'1121.7
2017-Jun-18 23:00N 26°34' W 114°23'1121.2
2017-Jun-18 22:29N 26°43' W 114°31'1321.3
2017-Jun-18 21:52N 26°53' W 114°41'821.2
2017-Jun-18 21:30N 26°59' W 114°46'1121.6
2017-Jun-18 21:00N 27°07' W 114°54'1122.6
2017-Jun-18 20:30N 27°16' W 115°02'1222.3
2017-Jun-18 19:57N 27°25' W 115°11'1022.2
2017-Jun-18 19:31N 27°33' W 115°18'2422.2
2017-Jun-18 18:24N 27°51' W 115°36'1022.2
2017-Jun-18 17:58N 27°59' W 115°43'8521.5
2017-Jun-18 14:00N 29°18' W 116°20'1121.8
2017-Jun-18 13:31N 29°28' W 116°24'2122.1
2017-Jun-18 12:32N 29°48' W 116°33'121.5
2017-Jun-18 12:30N 29°49' W 116°33'1121.8
2017-Jun-18 12:00N 29°59' W 116°38'1121.6
2017-Jun-18 11:30N 30°09' W 116°42'1221.5
2017-Jun-18 10:55N 30°21' W 116°47'921.7
2017-Jun-18 10:30N 30°29' W 116°51'1121.8
2017-Jun-18 10:00N 30°39' W 116°55'1121.7
2017-Jun-18 09:30N 30°50' W 116°60'1121.7
2017-Jun-18 09:01N 30°60' W 117°04'1121.7
2017-Jun-18 08:31N 31°10' W 117°09'1121.7
2017-Jun-18 08:01N 31°20' W 117°13'1121.8
2017-Jun-18 07:30N 31°30' W 117°17'1122.0
2017-Jun-18 07:00N 31°41' W 117°22'1121.9
2017-Jun-18 06:31N 31°51' W 117°26'1121.6
2017-Jun-18 06:00N 32°01' W 117°31'1121.6
2017-Jun-18 05:31N 32°11' W 117°35'1121.8
2017-Jun-18 05:01N 32°21' W 117°40'1121.7
2017-Jun-18 04:31N 32°31' W 117°45'1020.4
2017-Jun-18 04:01N 32°41' W 117°49'1020.5
2017-Jun-18 03:31N 32°51' W 117°51'1020.4
2017-Jun-18 03:01N 33°01' W 117°55'1020.5
2017-Jun-18 02:30N 33°10' W 118°00'1020.3
2017-Jun-18 02:01N 33°19' W 118°06'1020.4
2017-Jun-18 01:31N 33°28' W 118°10'816.2
2017-Jun-18 01:00N 33°36' W 118°13'612.2
2017-Jun-18 00:30N 33°42' W 118°11'3 6.1
2017-Jun-18 00:00N 33°45' W 118°11'0 0.0
2017-Jun-17 23:30N 33°45' W 118°11'0 0.0
2017-Jun-17 23:00N 33°45' W 118°11'0 0.0
2017-Jun-17 22:29N 33°45' W 118°11'0 0.0
2017-Jun-17 21:59N 33°45' W 118°11'0 0.0
2017-Jun-17 21:29N 33°45' W 118°11'0 0.0
2017-Jun-17 20:59N 33°45' W 118°11'0 0.0
2017-Jun-17 20:28N 33°45' W 118°11'0 0.0
2017-Jun-17 19:58N 33°45' W 118°11'0 0.0
2017-Jun-17 19:28N 33°45' W 118°11'0 0.0
2017-Jun-17 18:58N 33°45' W 118°11'0 0.0
2017-Jun-17 18:28N 33°45' W 118°11'0 0.0
2017-Jun-17 18:00N 33°45' W 118°11'0 0.0
2017-Jun-17 17:30N 33°45' W 118°11'0 0.0
2017-Jun-17 17:00N 33°45' W 118°11'0 0.0
2017-Jun-17 16:30N 33°45' W 118°11'0 0.0
2017-Jun-17 16:00N 33°45' W 118°11'0 0.0
2017-Jun-17 15:29N 33°45' W 118°11'0 0.0
2017-Jun-17 14:59N 33°45' W 118°11'0 0.0
2017-Jun-17 14:30N 33°45' W 118°11'1 1.0
2017-Jun-17 13:31N 33°44' W 118°11'510.0
2017-Jun-17 13:00N 33°39' W 118°10'611.3
2017-Jun-17 12:30N 33°34' W 118°09'612.0
2017-Jun-17 12:00N 33°28' W 118°06'713.9
2017-Jun-17 11:31N 33°22' W 118°03'713.7
2017-Jun-17 11:00N 33°15' W 118°00'714.0
2017-Jun-17 10:30N 33°09' W 117°56'816.5
2017-Jun-17 10:00N 33°01' W 117°53'816.9
2017-Jun-17 09:30N 32°53' W 117°50'816.8
2017-Jun-17 09:00N 32°45' W 117°47'917.3
2017-Jun-17 08:30N 32°37' W 117°43'917.1
2017-Jun-17 08:00N 32°29' W 117°39'917.1
2017-Jun-17 07:31N 32°21' W 117°35'917.1
2017-Jun-17 07:00N 32°13' W 117°32'917.1
2017-Jun-17 06:30N 32°05' W 117°28'817.0
2017-Jun-17 06:00N 31°57' W 117°24'816.6
2017-Jun-17 05:30N 31°50' W 117°21'816.7
2017-Jun-17 05:00N 31°42' W 117°17'816.7
2017-Jun-17 04:30N 31°34' W 117°13'816.9
2017-Jun-17 04:00N 31°26' W 117°10'1216.8
2017-Jun-17 03:18N 31°15' W 117°05'517.1
2017-Jun-17 03:00N 31°10' W 117°03'817.0
2017-Jun-17 02:30N 31°03' W 116°59'917.1
2017-Jun-17 02:00N 30°55' W 116°55'1217.2
2017-Jun-17 01:17N 30°43' W 116°50'517.5
2017-Jun-17 01:00N 30°39' W 116°48'1717.3
2017-Jun-17 00:01N 30°23' W 116°41'017.5
2017-Jun-17 00:00N 30°22' W 116°41'917.6
2017-Jun-16 23:30N 30°14' W 116°37'1120.1
2017-Jun-16 22:57N 30°04' W 116°32'2120.0
2017-Jun-16 21:53N 29°44' W 116°23'819.7
2017-Jun-16 21:30N 29°37' W 116°20'1019.8
2017-Jun-16 21:00N 29°28' W 116°16'1019.6
2017-Jun-16 20:30N 29°19' W 116°12'1119.8
2017-Jun-16 19:57N 29°08' W 116°07'1019.9
2017-Jun-16 19:27N 28°59' W 116°03'920.0
2017-Jun-16 19:00N 28°51' W 115°60'1020.1
2017-Jun-16 18:30N 28°42' W 115°55'1020.0
2017-Jun-16 18:00N 28°32' W 115°51'1020.0
2017-Jun-16 17:29N 28°23' W 115°47'1019.6
2017-Jun-16 17:00N 28°14' W 115°43'3219.4
2017-Jun-16 15:20N 27°48' W 115°20'719.8
2017-Jun-16 15:00N 27°43' W 115°16'2919.5
2017-Jun-16 13:30N 27°20' W 114°56'918.9
2017-Jun-16 13:00N 27°13' W 114°49'918.7
2017-Jun-16 12:30N 27°05' W 114°43'1020.2
2017-Jun-16 12:00N 26°57' W 114°36'1320.5
2017-Jun-16 11:21N 26°47' W 114°27'4519.2
2017-Jun-16 09:00N 26°12' W 113°54'   310 / 181016.010.8 18.016.419.0

Dump ship's entire track history